Sanders, Montana
Current Conditions -  °F | °C
As of 2:53 PM on Thursday 27 Nov 2014 (Local Time) from KMLS Reporting Station
Clear Clear  
Wind Chill: 40°   Ceiling: Unl
Heat Index: 43°   Visibility: 10mi
Dew Point: 34°   Wind: 5mph
Humidity: 71%   Direction: 220°SW
Pressure: 29.8"   Gusts: NA
Location:  46.29°N, 107.1°W
Report Text: KMLS 272153Z AUTO 22004KT 10SM CLR 06/01 A2980 RMK AO2 SLP109 T00610011
Loading
Personal Weather Stations






























Interactive Weather Map New forecast layout! Learn more

10-Day Weather Forecast

Advertisements
Track Severe Weather on mobile